Ashraf Salah

Scout - Ismaily
22 Feb 2027
Montag
Verarbeitung

Persönlichkeit

Anpassungsfähigkeit (2) Ehrgeiz (11) Kontroverse (18) Loyalität (2) Druck (8) Professionalität (2) Fairness (3) Temperament (12)

Profil

Trainerstil Demokratisch
Lizenz Kontinentale Pro
Entschlossenheit 4
Menschenführung 11
Motivation 6
Disziplin 10
Arbeitszufriedenheit
99%
Ermüdung
0%
Rolle Scout
Gehalt 64.0K p/W
Vertrag 14.03.2027

Leistung

Verhalten Gut
Trainingseffektivität
35%
Spielerentwicklung
50%
Verletzungsprävention
60%
Taktische Umsetzung
55%

Letzte Ereignisse

Nahm an einer Scouting-Besprechung teil jetzt
Empfahl ein Transferziel jetzt
Nahm an einer Scouting-Besprechung teil jetzt
Vertragsverhandlung begonnen jetzt
Vertragsverhandlung begonnen jetzt
Vertragsverhandlung begonnen jetzt
Vertragsverhandlung begonnen jetzt
Vertragsverhandlung begonnen jetzt

Aktuell beobachtet

167
Spieler Verein Status Fähigkeit Vertrauen Beobachtet Zuletzt beobachtet Letzte Stimme
Ahmed Helmy Petrojet Aktiv 68 / 66 72% 1 11.01.2027 Befürworten
Sam Nombe Milton Keynes Dons Aktiv 118 / 100 40% 1 10.01.2027 -
Jhonatan Candia Barracas Central Aktiv 133 / 131 40% 1 10.01.2027 -
Ondrej Duda Zamalek Aktiv 141 / 137 40% 8 09.01.2027 -
Leandrinho Sharjah Aktiv 105 / 117 40% 5 09.01.2027 -
Karim El Berkaoui Al Dhafra Aktiv 125 / 115 40% 2 31.12.2026 -
Daniel Kyerewaa Reading Aktiv 105 / 111 40% 1 31.12.2026 -
Ben Ahmed Kohili Paradou Aktiv 108 / 109 40% 2 29.12.2026 -
Badr Mousa Petrojet Aktiv 90 / 85 40% 1 29.12.2026 -
Saad Al-Salouli Al-Ra'ed Aktiv 103 / 104 40% 1 29.12.2026 -
Kaku Al Ain Aktiv 123 / 123 40% 5 26.12.2026 -
Caio Lucas Al Ain Aktiv 128 / 117 40% 1 25.12.2026 -
Brian Figueroa Morelia Aktiv 107 / 100 40% 1 25.12.2026 -
Abdullah Al-Qahtani Najran Aktiv 101 / 100 40% 1 24.12.2026 -
Abderrahmane Meziane CR Belouizdad Aktiv 118 / 111 40% 1 24.12.2026 -
Hassan Al Menhali Al Shabab Aktiv 110 / 114 40% 1 24.12.2026 -
Nicolás Giménez Al Wasl Aktiv 123 / 131 40% 3 23.12.2026 -
Kurt Zouma Al Wasl Aktiv 128 / 119 40% 5 23.12.2026 -
Abdulbasit Hindi Al-Ettifaq Aktiv 108 / 114 40% 1 23.12.2026 -
Deano Van Rooyen Ajax Cape Town Aktiv 114 / 103 40% 2 22.12.2026 -
Lebogang Zwane Black Aces Aktiv 106 / 105 40% 2 22.12.2026 -
Djihad Bizimana CS Constantine Aktiv 117 / 120 40% 5 21.12.2026 -
Juanjo Narváez Al-Ra'ed Aktiv 112 / 118 40% 4 21.12.2026 Beobachten
Jonata Machado Al-Ta'ee Aktiv 97 / 94 40% 4 20.12.2026 -
João Victor Baniyas Aktiv 104 / 98 40% 1 20.12.2026 -
Charlie Webster Burton Albion Aktiv 121 / 112 40% 1 20.12.2026 -
Mohammed Al-Dossary Al-Ra'ed Aktiv 99 / 104 40% 2 19.12.2026 -
Younes El Bahraoui Al-Taawoun Aktiv 107 / 113 40% 2 19.12.2026 -
Renato Júnior Al Wasl Aktiv 121 / 127 40% 1 19.12.2026 -
Ibrahim Bayesh Al Dhafra Aktiv 126 / 117 40% 2 17.12.2026 -
Madallah Al-Olayan Al-Ettifaq Aktiv 108 / 117 40% 3 17.12.2026 -
Wadhah Zaidi Hajer Aktiv 95 / 92 40% 1 17.12.2026 -
Ali Saleh Al Wasl Aktiv 116 / 120 40% 2 16.12.2026 -
Abdulmalik Al-Jaber Al-Nassr Aktiv 107 / 115 40% 2 16.12.2026 -
Saeed Al-Hamsal Al-Khaleej Aktiv 105 / 109 40% 3 15.12.2026 -
Valentín Vada Damac Aktiv 123 / 114 40% 2 15.12.2026 -
Imadeddine Boubekeur USM Khenchela Aktiv 108 / 98 40% 1 15.12.2026 -
Alfa Semedo Al-Fayha Aktiv 117 / 121 40% 3 14.12.2026 -
Mehdi Boudjemaa CR Belouizdad Aktiv 103 / 106 40% 2 14.12.2026 -
Johnson Amuzu Berekum Chelsea Aktiv 94 / 94 40% 1 14.12.2026 -
Youcef Douar USM Khenchela Aktiv 108 / 111 40% 1 12.12.2026 -
Wilder Cartagena Persepolis Aktiv 119 / 120 40% 1 11.12.2026 -
Richard Akonnor Al Jazira Aktiv 106 / 108 40% 1 11.12.2026 -
John Okoye Ebuka Ittihad Aktiv 119 / 106 40% 1 09.12.2026 -
Tin Jedvaj Al-Shabab Aktiv 114 / 112 40% 2 08.12.2026 -
Yanis Hamache MC Oran Aktiv 118 / 115 40% 1 08.12.2026 -
David Petrović Al Nasr Abgelehnt 116 / 119 40% 4 07.12.2026 Ablehnen
Abdelmoumen Chikhi CS Constantine Aktiv 98 / 95 40% 1 06.12.2026 -
Chico Banza Zamalek Aktiv 117 / 108 40% 3 05.12.2026 -
Kokou Avotor ASO Chlef Aktiv 98 / 90 40% 1 05.12.2026 -
Papa Ndiaga Yade Oleksandriya Aktiv 104 / 101 40% 1 05.12.2026 -
Omar Al-Ruwaili Najran Aktiv 83 / 81 40% 2 04.12.2026 -
Achraf Bencharki Al Ahly Aktiv 126 / 122 40% 4 02.12.2026 -
André Vidigal ENPPI Aktiv 112 / 105 40% 1 02.12.2026 -
Álvaro Medrán Al-Ettifaq Aktiv 131 / 132 40% 6 01.12.2026 -
Moussa N'Diaye Al Nasr Aktiv 118 / 125 40% 3 01.12.2026 -
Willyan Rocha Al Jazira Aktiv 131 / 134 40% 2 01.12.2026 -
Moustafa Zeidan El Masry Aktiv 124 / 111 40% 3 30.11.2026 -
Nour El Islam Fettouhi JS Saoura Aktiv 93 / 103 40% 1 30.11.2026 -
Erick Ngcobo Black Aces Aktiv 104 / 103 40% 1 28.11.2026 -
Jean Charles Ahoua Al-Faisaly Aktiv 98 / 110 40% 1 28.11.2026 -
Ousmane Coumbassa MC Oran Aktiv 101 / 107 40% 2 27.11.2026 -
Pedro Rebocho Al-Khaleej Aktiv 114 / 111 40% 7 25.11.2026 -
Hamza Sakhi Hajer Aktiv 116 / 109 40% 2 25.11.2026 -
Luther Zwane Platinum Stars Aktiv 98 / 108 40% 2 25.11.2026 -
Daniil Agureev Amkar Aktiv 94 / 84 40% 1 25.11.2026 -
Ahmed Aït-Abdesslem Hearts of Oak Aktiv 90 / 97 40% 1 25.11.2026 -
Hesham Balaha Smouha Aktiv 107 / 101 40% 1 25.11.2026 -
Ibrahim Tarek Masr El Makasa Aktiv 130 / 133 40% 1 25.11.2026 -
Chancel Mbemba Al-Diriyah Aktiv 141 / 133 40% 5 23.11.2026 -
Ali Adnan Al-Wehda Aktiv 116 / 107 40% 6 20.11.2026 -
Ezeckiel Noumonvi Al Dhafra Aktiv 105 / 100 40% 2 19.11.2026 -
Dramane Kamagaté USM Alger Aktiv 101 / 111 40% 2 19.11.2026 -
Saymon Dibba Aktiv 111 / 114 40% 2 18.11.2026 -
Brahian Palacios Al Wasl Aktiv 120 / 123 40% 1 18.11.2026 -
Ali Soliman Masr El Makasa Aktiv 131 / 127 40% 2 17.11.2026 -
Martin Sekulić Ural Aktiv 115 / 119 40% 2 16.11.2026 -
Facundo Kruspzky Al Wahda Aktiv 120 / 123 40% 2 16.11.2026 -
Jobson Al Dhafra Aktiv 126 / 128 40% 4 13.11.2026 -
Lucas Pimenta Al Wahda Aktiv 117 / 121 40% 3 13.11.2026 -
Mohamed Kanno Al-Hilal Aktiv 126 / 117 40% 4 12.11.2026 -
Lebogang Erasmus Platinum Stars Aktiv 99 / 120 40% 3 12.11.2026 -
Mohamed Réda Halaïmia MC Alger Aktiv 105 / 113 40% 3 10.11.2026 -
Mahamadou Camara Baniyas Aktiv 103 / 111 40% 1 08.11.2026 -
Houssemeddine Ghacha USM Alger Aktiv 118 / 108 40% 1 05.11.2026 -
Bruno Al Jazira Aktiv 109 / 114 40% 1 05.11.2026 -
Moses Twum Haras El Hodoud Aktiv 99 / 94 40% 2 03.11.2026 -
Abdulkarim Darisi Al-Hilal Aktiv 105 / 110 40% 1 03.11.2026 -
Morad Khodari Al-Wehda Aktiv 88 / 99 40% 1 03.11.2026 -
Abdullah Al-Khaibari Al-Nassr Aktiv 123 / 124 40% 4 02.11.2026 -
Nduduzo Sibiya Golden Arrows Aktiv 124 / 123 40% 1 02.11.2026 -
Mackenzie Hunt Baniyas Aktiv 100 / 97 40% 2 31.10.2026 -
Solomon Tweh Al-Ra'ed Aktiv 98 / 104 40% 3 31.10.2026 -
Andrigo Dibba Aktiv 119 / 114 40% 1 30.10.2026 -
Mohanad Ali Dibba Aktiv 113 / 116 40% 1 29.10.2026 -
Zakaria Draoui USM Alger Aktiv 105 / 121 40% 2 27.10.2026 -
Saâdi Radouani USM Alger Aktiv 103 / 112 40% 1 27.10.2026 -
Taher Mohamed Al Ahly Aktiv 123 / 130 40% 2 24.10.2026 -
Maro Katinić Sharjah Aktiv 113 / 127 40% 1 23.10.2026 -
Ibrahim Al-Nakhli Al-Ta'ee Aktiv 94 / 91 40% 2 22.10.2026 -
Wesley Hoedt Al-Shabab Aktiv 126 / 126 40% 2 21.10.2026 -
Marcelo Flores Tigres Abgelehnt 111 / 131 40% 1 20.10.2026 Mehr Infos nötig
Constant Wayou JS Saoura Aktiv 103 / 105 40% 1 20.10.2026 -
Mouhameth Diop Al Fujairah Aktiv 84 / 86 40% 1 20.10.2026 -
Milán Tóth Vasas Aktiv 98 / 100 40% 1 20.10.2026 -
Ramadan Mohsen Zamalek Aktiv 119 / 113 40% 2 18.10.2026 -
Abderrahmane Bacha Paradou Aktiv 99 / 100 40% 1 18.10.2026 -
Mateo Fernández Angusht Aktiv 81 / 73 40% 1 18.10.2026 -
Abdullah Al-Yousif Al-Ra'ed Aktiv 99 / 108 40% 1 17.10.2026 -
Vyacheslav Grulev Nizhniy Novgorod Aktiv 118 / 119 40% 1 16.10.2026 -
Augustine Oladapo Al-Wehda Aktiv 100 / 103 40% 2 14.10.2026 -
Cho Yu-Min Sharjah Aktiv 121 / 116 40% 1 14.10.2026 -
Messala Merbah CS Constantine Aktiv 109 / 100 40% 2 12.10.2026 -
Nasser Al Shamsi Al Shabab Aktiv 112 / 124 40% 2 09.10.2026 -
Franco Cristaldo Talleres Aktiv 125 / 121 40% 1 09.10.2026 -
Mohamed El Khaloui Al Dhafra Aktiv 105 / 112 40% 2 08.10.2026 -
Matías Pellegrini Vélez Aktiv 129 / 131 40% 1 08.10.2026 -
Youssef Hassan Al Shabab Aktiv 115 / 129 40% 1 07.10.2026 -
Edgar Ié Smouha Aktiv 106 / 110 40% 1 06.10.2026 -
Abdullah Al-Ammar Al-Khaleej Aktiv 104 / 99 40% 2 04.10.2026 -
Gláuber Al Nasr Aktiv 113 / 121 40% 1 01.10.2026 -
Abdulla Abdullayev Dibba Aktiv 110 / 103 40% 1 01.10.2026 -
Rodin Quiñónes Dinamo Batumi Aktiv 109 / 116 40% 1 29.09.2026 -
Mohammed Al-Khabrani Al-Khaleej Aktiv 105 / 110 40% 1 28.09.2026 -
Aubrey Modiba Mamelodi Sundowns Aktiv 131 / 117 40% 1 28.09.2026 -
Zayed Sultan Al Nasr Aktiv 115 / 117 40% 2 25.09.2026 -
Reda Jaadi BATE Aktiv 112 / 125 40% 2 25.09.2026 -
Saviour Godwin Baniyas Aktiv 120 / 124 40% 1 25.09.2026 -
João Moreira Al Nasr Aktiv 118 / 123 40% 3 24.09.2026 -
Bandar Al Suwaidi Al Ahli Aktiv 114 / 108 40% 2 24.09.2026 -
Adam Gnezda Čerin Al Wahda Aktiv 120 / 114 40% 1 23.09.2026 -
Renato Tapia Al Wasl Aktiv 139 / 143 40% 4 22.09.2026 -
Ali Lajami Al-Diriyah Aktiv 115 / 112 40% 1 22.09.2026 -
Chouaib Keddad CR Belouizdad Aktiv 108 / 118 40% 1 20.09.2026 -
Fethallah Tahar Olympique Akbou Aktiv 101 / 98 40% 1 18.09.2026 -
Yousri Bouzok CR Belouizdad Aktiv 116 / 117 40% 1 18.09.2026 -
Ilyes Chetti USM Alger Aktiv 102 / 101 40% 1 15.09.2026 -
Zizo Al Ahly Aktiv 138 / 144 40% 1 15.09.2026 -
Suhail Al-Noobi Baniyas Aktiv 100 / 108 40% 1 13.09.2026 -
Mohammed Al-Kuwaykibi Al-Taawoun Aktiv 109 / 102 40% 1 11.09.2026 -
Hamed Al-Ghamdi Al-Wehda Aktiv 106 / 102 40% 1 11.09.2026 -
Walid Hassan Al Shabab Aktiv 121 / 117 40% 2 09.09.2026 -
Saeed Baattia Al-Fateh Aktiv 104 / 95 40% 2 07.09.2026 -
Siaka Sidibé Al Wasl Aktiv 124 / 114 40% 2 06.09.2026 -
Sultan Al-Ghannam Al-Nassr Aktiv 107 / 109 40% 2 02.09.2026 -
Khaled Ebraheim Sharjah Aktiv 114 / 115 40% 2 02.09.2026 -
Leandrinho Emirates Club Aktiv 108 / 112 40% 2 02.09.2026 -
Ahmed Bahusayn Al-Taawoun Aktiv 100 / 97 40% 1 01.09.2026 -
Merwane Khelif MC Alger Aktiv 105 / 98 40% 1 01.09.2026 -
Abdulaziz Al-Bishi Al-Ittihad Aktiv 104 / 100 40% 1 31.08.2026 -
Amer Ismail Al Ahli Aktiv 113 / 111 40% 1 30.08.2026 -
Mohau Nkota Al-Ettifaq Aktiv 110 / 117 40% 1 29.08.2026 -
Abdulla Hamad Al Wahda Aktiv 116 / 123 40% 2 26.08.2026 -
Darwin González Al-Wehda Aktiv 111 / 121 40% 1 26.08.2026 -
Mohamed Ali Ben Romdhane Al Ahly Aktiv 130 / 117 40% 1 26.08.2026 -
Mahmoud El Wensh Zamalek Aktiv 118 / 137 40% 1 26.08.2026 -
Haithem Loucif USM Alger Aktiv 112 / 106 40% 1 25.08.2026 -
Erik Al Ahli Aktiv 111 / 111 40% 1 23.08.2026 -
Raouf Benguit USM Alger Aktiv 120 / 117 40% 1 22.08.2026 -
Sultan Mandash Al-Hilal Aktiv 116 / 119 40% 1 19.08.2026 -
Isaac Success Al Shaab Aktiv 113 / 112 40% 1 17.08.2026 -
Zakaria Naïdji MC Alger Aktiv 110 / 110 40% 1 17.08.2026 -
Walid Al Junaibi Al Shabab Aktiv 110 / 125 40% 1 11.08.2026 -
Ousmane Camara Sharjah Aktiv 110 / 122 40% 1 11.08.2026 -
Liel Abada Charlotte Football Club Aktiv 139 / 138 40% 1 02.08.2026 -
Alimi Sikiru JS Saoura Aktiv 109 / 109 40% 1 02.08.2026 -
Ahmed Al-Nakhli Al-Hazem Aktiv 104 / 117 40% 1 01.08.2026 -